sensor_id;sensor_type;location;lat;lon;timestamp;P1;durP1;ratioP1;P2;durP2;ratioP2
65130;SDS011;51709;54.912;8.316;2024-03-02T00:00:57;23.13;;;14.82;;
65130;SDS011;51709;54.912;8.316;2024-03-02T00:06:19;30.55;;;17.23;;
65130;SDS011;51709;54.912;8.316;2024-03-02T00:11:42;30.50;;;16.27;;
65130;SDS011;51709;54.912;8.316;2024-03-02T00:17:03;27.83;;;15.52;;
65130;SDS011;51709;54.912;8.316;2024-03-02T00:22:23;25.88;;;15.80;;
65130;SDS011;51709;54.912;8.316;2024-03-02T00:27:47;31.30;;;15.90;;
65130;SDS011;51709;54.912;8.316;2024-03-02T00:33:09;28.20;;;15.65;;
65130;SDS011;51709;54.912;8.316;2024-03-02T00:38:30;23.33;;;14.63;;
65130;SDS011;51709;54.912;8.316;2024-03-02T00:49:24;28.70;;;16.50;;
65130;SDS011;51709;54.912;8.316;2024-03-02T00:54:44;28.83;;;16.42;;
65130;SDS011;51709;54.912;8.316;2024-03-02T01:00:05;32.85;;;18.30;;
65130;SDS011;51709;54.912;8.316;2024-03-02T01:10:50;33.03;;;16.95;;
65130;SDS011;51709;54.912;8.316;2024-03-02T01:16:10;38.85;;;18.38;;
65130;SDS011;51709;54.912;8.316;2024-03-02T01:21:31;35.63;;;18.20;;
65130;SDS011;51709;54.912;8.316;2024-03-02T01:26:51;35.53;;;17.92;;
65130;SDS011;51709;54.912;8.316;2024-03-02T01:32:12;38.08;;;18.25;;
65130;SDS011;51709;54.912;8.316;2024-03-02T01:37:32;37.67;;;18.75;;
65130;SDS011;51709;54.912;8.316;2024-03-02T01:42:53;34.35;;;18.63;;
65130;SDS011;51709;54.912;8.316;2024-03-02T01:48:14;35.47;;;19.08;;
65130;SDS011;51709;54.912;8.316;2024-03-02T01:53:35;38.75;;;19.90;;
65130;SDS011;51709;54.912;8.316;2024-03-02T01:58:56;34.08;;;18.67;;
65130;SDS011;51709;54.912;8.316;2024-03-02T02:04:16;37.42;;;19.67;;
65130;SDS011;51709;54.912;8.316;2024-03-02T02:09:37;37.47;;;21.20;;
65130;SDS011;51709;54.912;8.316;2024-03-02T02:14:58;45.38;;;20.50;;
65130;SDS011;51709;54.912;8.316;2024-03-02T02:20:18;38.47;;;19.52;;
65130;SDS011;51709;54.912;8.316;2024-03-02T02:25:39;37.58;;;17.23;;
65130;SDS011;51709;54.912;8.316;2024-03-02T02:31:00;38.40;;;18.33;;
65130;SDS011;51709;54.912;8.316;2024-03-02T02:36:21;32.83;;;18.80;;
65130;SDS011;51709;54.912;8.316;2024-03-02T02:41:42;37.42;;;19.67;;
65130;SDS011;51709;54.912;8.316;2024-03-02T02:47:02;30.08;;;18.13;;
65130;SDS011;51709;54.912;8.316;2024-03-02T02:52:23;43.20;;;20.73;;
65130;SDS011;51709;54.912;8.316;2024-03-02T02:57:43;44.92;;;19.90;;
65130;SDS011;51709;54.912;8.316;2024-03-02T03:03:05;44.13;;;20.65;;
65130;SDS011;51709;54.912;8.316;2024-03-02T03:08:25;31.77;;;17.45;;
65130;SDS011;51709;54.912;8.316;2024-03-02T03:13:46;39.97;;;19.80;;
65130;SDS011;51709;54.912;8.316;2024-03-02T03:19:06;37.65;;;19.48;;
65130;SDS011;51709;54.912;8.316;2024-03-02T03:24:27;38.60;;;18.98;;
65130;SDS011;51709;54.912;8.316;2024-03-02T03:29:48;34.42;;;19.13;;
65130;SDS011;51709;54.912;8.316;2024-03-02T03:35:09;38.10;;;19.30;;
65130;SDS011;51709;54.912;8.316;2024-03-02T03:40:30;41.97;;;20.95;;
65130;SDS011;51709;54.912;8.316;2024-03-02T03:45:51;45.88;;;21.50;;
65130;SDS011;51709;54.912;8.316;2024-03-02T03:51:12;42.10;;;20.50;;
65130;SDS011;51709;54.912;8.316;2024-03-02T03:56:32;33.88;;;18.55;;
65130;SDS011;51709;54.912;8.316;2024-03-02T04:01:52;42.13;;;20.00;;
65130;SDS011;51709;54.912;8.316;2024-03-02T04:07:13;37.03;;;19.38;;
65130;SDS011;51709;54.912;8.316;2024-03-02T04:12:34;44.60;;;21.60;;
65130;SDS011;51709;54.912;8.316;2024-03-02T04:17:56;39.42;;;20.98;;
65130;SDS011;51709;54.912;8.316;2024-03-02T04:23:17;39.42;;;19.90;;
65130;SDS011;51709;54.912;8.316;2024-03-02T04:28:38;38.95;;;20.23;;
65130;SDS011;51709;54.912;8.316;2024-03-02T04:33:59;39.83;;;19.88;;
65130;SDS011;51709;54.912;8.316;2024-03-02T04:39:21;36.08;;;19.40;;
65130;SDS011;51709;54.912;8.316;2024-03-02T04:44:41;35.08;;;17.92;;
65130;SDS011;51709;54.912;8.316;2024-03-02T04:50:02;38.30;;;19.88;;
65130;SDS011;51709;54.912;8.316;2024-03-02T04:55:23;36.72;;;19.65;;
65130;SDS011;51709;54.912;8.316;2024-03-02T05:01:16;38.30;;;19.92;;
65130;SDS011;51709;54.912;8.316;2024-03-02T05:06:38;37.20;;;18.88;;
65130;SDS011;51709;54.912;8.316;2024-03-02T05:12:00;42.45;;;20.23;;
65130;SDS011;51709;54.912;8.316;2024-03-02T05:17:43;44.67;;;18.98;;
65130;SDS011;51709;54.912;8.316;2024-03-02T05:23:04;32.30;;;16.98;;
65130;SDS011;51709;54.912;8.316;2024-03-02T05:28:24;39.88;;;19.45;;
65130;SDS011;51709;54.912;8.316;2024-03-02T05:33:45;39.45;;;19.58;;
65130;SDS011;51709;54.912;8.316;2024-03-02T05:39:05;38.33;;;19.85;;
65130;SDS011;51709;54.912;8.316;2024-03-02T05:44:29;39.90;;;20.88;;
65130;SDS011;51709;54.912;8.316;2024-03-02T05:49:50;34.25;;;17.08;;
65130;SDS011;51709;54.912;8.316;2024-03-02T05:55:11;31.83;;;19.27;;
65130;SDS011;51709;54.912;8.316;2024-03-02T06:00:31;41.22;;;19.92;;
65130;SDS011;51709;54.912;8.316;2024-03-02T06:05:52;45.22;;;19.90;;
65130;SDS011;51709;54.912;8.316;2024-03-02T06:11:13;34.58;;;20.35;;
65130;SDS011;51709;54.912;8.316;2024-03-02T06:16:34;34.05;;;19.08;;
65130;SDS011;51709;54.912;8.316;2024-03-02T06:21:55;36.22;;;19.90;;
65130;SDS011;51709;54.912;8.316;2024-03-02T06:27:16;39.58;;;19.80;;
65130;SDS011;51709;54.912;8.316;2024-03-02T06:32:36;38.85;;;19.70;;
65130;SDS011;51709;54.912;8.316;2024-03-02T06:37:57;40.50;;;21.23;;
65130;SDS011;51709;54.912;8.316;2024-03-02T06:43:18;44.40;;;19.55;;
65130;SDS011;51709;54.912;8.316;2024-03-02T06:48:38;39.85;;;20.00;;
65130;SDS011;51709;54.912;8.316;2024-03-02T06:53:59;43.45;;;19.63;;
65130;SDS011;51709;54.912;8.316;2024-03-02T06:59:21;37.78;;;19.27;;
65130;SDS011;51709;54.912;8.316;2024-03-02T07:04:41;42.67;;;20.58;;
65130;SDS011;51709;54.912;8.316;2024-03-02T07:10:02;37.25;;;20.20;;
65130;SDS011;51709;54.912;8.316;2024-03-02T07:15:24;39.10;;;20.98;;
65130;SDS011;51709;54.912;8.316;2024-03-02T07:20:47;35.93;;;21.17;;
65130;SDS011;51709;54.912;8.316;2024-03-02T07:26:09;40.78;;;21.52;;
65130;SDS011;51709;54.912;8.316;2024-03-02T07:31:33;33.70;;;19.93;;
65130;SDS011;51709;54.912;8.316;2024-03-02T07:36:53;39.40;;;21.25;;
65130;SDS011;51709;54.912;8.316;2024-03-02T07:42:14;39.53;;;20.80;;
65130;SDS011;51709;54.912;8.316;2024-03-02T07:47:36;41.33;;;20.70;;
65130;SDS011;51709;54.912;8.316;2024-03-02T07:52:57;44.47;;;21.27;;
65130;SDS011;51709;54.912;8.316;2024-03-02T07:58:18;40.33;;;20.92;;
65130;SDS011;51709;54.912;8.316;2024-03-02T08:03:40;37.95;;;19.73;;
65130;SDS011;51709;54.912;8.316;2024-03-02T08:09:01;42.53;;;21.80;;
65130;SDS011;51709;54.912;8.316;2024-03-02T08:14:21;40.72;;;19.90;;
65130;SDS011;51709;54.912;8.316;2024-03-02T08:19:42;41.60;;;21.48;;
65130;SDS011;51709;54.912;8.316;2024-03-02T08:25:04;38.13;;;20.00;;
65130;SDS011;51709;54.912;8.316;2024-03-02T08:30:25;35.88;;;19.52;;
65130;SDS011;51709;54.912;8.316;2024-03-02T08:35:45;39.92;;;20.60;;
65130;SDS011;51709;54.912;8.316;2024-03-02T08:41:06;38.80;;;20.95;;
65130;SDS011;51709;54.912;8.316;2024-03-02T08:46:27;36.25;;;19.38;;
65130;SDS011;51709;54.912;8.316;2024-03-02T08:51:48;34.17;;;19.00;;
65130;SDS011;51709;54.912;8.316;2024-03-02T08:57:15;37.03;;;19.30;;
65130;SDS011;51709;54.912;8.316;2024-03-02T09:02:35;33.88;;;19.67;;
65130;SDS011;51709;54.912;8.316;2024-03-02T09:07:56;37.28;;;20.80;;
65130;SDS011;51709;54.912;8.316;2024-03-02T09:13:17;30.75;;;17.90;;
65130;SDS011;51709;54.912;8.316;2024-03-02T09:18:38;33.33;;;18.80;;
65130;SDS011;51709;54.912;8.316;2024-03-02T09:23:58;32.83;;;17.70;;
65130;SDS011;51709;54.912;8.316;2024-03-02T09:29:18;28.88;;;16.80;;
65130;SDS011;51709;54.912;8.316;2024-03-02T09:34:42;30.90;;;18.05;;
65130;SDS011;51709;54.912;8.316;2024-03-02T09:40:03;32.47;;;17.20;;
65130;SDS011;51709;54.912;8.316;2024-03-02T09:45:26;29.10;;;16.15;;
65130;SDS011;51709;54.912;8.316;2024-03-02T09:50:47;30.10;;;16.83;;
65130;SDS011;51709;54.912;8.316;2024-03-02T09:56:07;26.38;;;15.15;;
65130;SDS011;51709;54.912;8.316;2024-03-02T10:01:28;29.65;;;16.02;;
65130;SDS011;51709;54.912;8.316;2024-03-02T10:06:49;30.33;;;17.17;;
65130;SDS011;51709;54.912;8.316;2024-03-02T10:12:10;25.85;;;15.15;;
65130;SDS011;51709;54.912;8.316;2024-03-02T10:17:32;22.38;;;13.90;;
65130;SDS011;51709;54.912;8.316;2024-03-02T10:22:53;26.77;;;14.63;;
65130;SDS011;51709;54.912;8.316;2024-03-02T10:28:14;22.48;;;14.32;;
65130;SDS011;51709;54.912;8.316;2024-03-02T10:33:36;19.23;;;12.57;;
65130;SDS011;51709;54.912;8.316;2024-03-02T10:38:56;18.30;;;12.68;;
65130;SDS011;51709;54.912;8.316;2024-03-02T10:44:19;22.90;;;13.48;;
65130;SDS011;51709;54.912;8.316;2024-03-02T10:49:42;19.77;;;12.32;;
65130;SDS011;51709;54.912;8.316;2024-03-02T10:55:05;19.70;;;12.27;;
65130;SDS011;51709;54.912;8.316;2024-03-02T11:00:26;17.85;;;10.48;;
65130;SDS011;51709;54.912;8.316;2024-03-02T11:05:55;21.17;;;11.30;;
65130;SDS011;51709;54.912;8.316;2024-03-02T11:11:19;20.58;;;10.15;;
65130;SDS011;51709;54.912;8.316;2024-03-02T11:16:46;17.80;;;11.02;;
65130;SDS011;51709;54.912;8.316;2024-03-02T11:22:07;14.52;;;10.30;;
65130;SDS011;51709;54.912;8.316;2024-03-02T11:33:11;16.13;;;10.35;;
65130;SDS011;51709;54.912;8.316;2024-03-02T11:38:33;14.13;;;9.60;;
65130;SDS011;51709;54.912;8.316;2024-03-02T11:43:54;11.85;;;8.52;;
65130;SDS011;51709;54.912;8.316;2024-03-02T11:49:15;14.65;;;10.75;;
65130;SDS011;51709;54.912;8.316;2024-03-02T11:54:39;14.88;;;10.02;;
65130;SDS011;51709;54.912;8.316;2024-03-02T12:00:16;13.13;;;8.63;;
65130;SDS011;51709;54.912;8.316;2024-03-02T12:05:37;12.50;;;8.40;;
65130;SDS011;51709;54.912;8.316;2024-03-02T12:10:58;13.50;;;8.10;;
65130;SDS011;51709;54.912;8.316;2024-03-02T12:16:23;14.77;;;8.88;;
65130;SDS011;51709;54.912;8.316;2024-03-02T12:21:47;11.35;;;7.53;;
65130;SDS011;51709;54.912;8.316;2024-03-02T12:27:08;9.35;;;7.53;;
65130;SDS011;51709;54.912;8.316;2024-03-02T12:32:28;9.07;;;7.85;;
65130;SDS011;51709;54.912;8.316;2024-03-02T12:37:50;12.93;;;8.50;;
65130;SDS011;51709;54.912;8.316;2024-03-02T12:43:11;11.85;;;9.43;;
65130;SDS011;51709;54.912;8.316;2024-03-02T12:48:32;10.80;;;9.10;;
65130;SDS011;51709;54.912;8.316;2024-03-02T12:53:59;9.77;;;8.77;;
65130;SDS011;51709;54.912;8.316;2024-03-02T12:59:21;9.75;;;8.85;;
65130;SDS011;51709;54.912;8.316;2024-03-02T13:04:52;10.10;;;8.18;;
65130;SDS011;51709;54.912;8.316;2024-03-02T13:10:17;9.18;;;7.75;;
65130;SDS011;51709;54.912;8.316;2024-03-02T13:15:38;10.40;;;8.63;;
65130;SDS011;51709;54.912;8.316;2024-03-02T13:20:59;10.55;;;8.48;;
65130;SDS011;51709;54.912;8.316;2024-03-02T13:26:19;9.80;;;8.07;;
65130;SDS011;51709;54.912;8.316;2024-03-02T13:31:40;12.48;;;8.63;;
65130;SDS011;51709;54.912;8.316;2024-03-02T13:37:00;10.48;;;8.10;;
65130;SDS011;51709;54.912;8.316;2024-03-02T13:42:22;10.55;;;8.07;;
65130;SDS011;51709;54.912;8.316;2024-03-02T13:47:43;10.93;;;9.18;;
65130;SDS011;51709;54.912;8.316;2024-03-02T13:53:04;11.38;;;8.05;;
65130;SDS011;51709;54.912;8.316;2024-03-02T13:58:24;10.20;;;7.78;;
65130;SDS011;51709;54.912;8.316;2024-03-02T14:03:45;11.70;;;8.23;;
65130;SDS011;51709;54.912;8.316;2024-03-02T14:09:06;12.32;;;7.38;;
65130;SDS011;51709;54.912;8.316;2024-03-02T14:14:27;9.77;;;7.13;;
65130;SDS011;51709;54.912;8.316;2024-03-02T14:19:47;12.80;;;8.80;;
65130;SDS011;51709;54.912;8.316;2024-03-02T14:25:08;12.07;;;8.32;;
65130;SDS011;51709;54.912;8.316;2024-03-02T14:30:29;12.43;;;7.65;;
65130;SDS011;51709;54.912;8.316;2024-03-02T14:35:49;12.45;;;8.20;;
65130;SDS011;51709;54.912;8.316;2024-03-02T14:41:10;10.80;;;7.90;;
65130;SDS011;51709;54.912;8.316;2024-03-02T14:46:31;13.98;;;8.75;;
65130;SDS011;51709;54.912;8.316;2024-03-02T14:51:51;11.57;;;8.40;;
65130;SDS011;51709;54.912;8.316;2024-03-02T14:57:12;11.20;;;8.40;;
65130;SDS011;51709;54.912;8.316;2024-03-02T15:02:33;13.65;;;8.80;;
65130;SDS011;51709;54.912;8.316;2024-03-02T15:07:54;14.98;;;8.75;;
65130;SDS011;51709;54.912;8.316;2024-03-02T15:13:15;16.40;;;9.48;;
65130;SDS011;51709;54.912;8.316;2024-03-02T15:18:36;12.55;;;8.30;;
65130;SDS011;51709;54.912;8.316;2024-03-02T15:23:56;15.52;;;9.13;;
65130;SDS011;51709;54.912;8.316;2024-03-02T15:29:17;13.45;;;9.90;;
65130;SDS011;51709;54.912;8.316;2024-03-02T15:34:37;15.80;;;8.95;;
65130;SDS011;51709;54.912;8.316;2024-03-02T15:39:58;15.32;;;9.90;;
65130;SDS011;51709;54.912;8.316;2024-03-02T15:45:25;16.23;;;9.73;;
65130;SDS011;51709;54.912;8.316;2024-03-02T15:50:53;15.45;;;9.18;;
65130;SDS011;51709;54.912;8.316;2024-03-02T15:56:14;16.52;;;9.30;;
65130;SDS011;51709;54.912;8.316;2024-03-02T16:01:34;17.92;;;10.35;;
65130;SDS011;51709;54.912;8.316;2024-03-02T16:06:55;23.15;;;12.38;;
65130;SDS011;51709;54.912;8.316;2024-03-02T16:12:16;12.07;;;9.15;;
65130;SDS011;51709;54.912;8.316;2024-03-02T16:17:37;14.43;;;8.93;;
65130;SDS011;51709;54.912;8.316;2024-03-02T16:22:57;14.85;;;9.73;;
65130;SDS011;51709;54.912;8.316;2024-03-02T16:28:18;19.90;;;9.85;;
65130;SDS011;51709;54.912;8.316;2024-03-02T16:33:39;13.27;;;8.85;;
65130;SDS011;51709;54.912;8.316;2024-03-02T16:39:03;14.15;;;8.65;;
65130;SDS011;51709;54.912;8.316;2024-03-02T16:44:24;12.18;;;8.02;;
65130;SDS011;51709;54.912;8.316;2024-03-02T16:49:44;11.45;;;7.95;;
65130;SDS011;51709;54.912;8.316;2024-03-02T16:55:06;11.90;;;8.07;;
65130;SDS011;51709;54.912;8.316;2024-03-02T17:00:27;14.90;;;9.45;;
65130;SDS011;51709;54.912;8.316;2024-03-02T17:05:48;11.93;;;9.43;;
65130;SDS011;51709;54.912;8.316;2024-03-02T17:11:09;14.57;;;9.07;;
65130;SDS011;51709;54.912;8.316;2024-03-02T17:16:29;12.25;;;8.70;;
65130;SDS011;51709;54.912;8.316;2024-03-02T17:21:50;12.95;;;8.98;;
65130;SDS011;51709;54.912;8.316;2024-03-02T17:27:10;20.58;;;9.27;;
65130;SDS011;51709;54.912;8.316;2024-03-02T17:32:31;11.65;;;7.90;;
65130;SDS011;51709;54.912;8.316;2024-03-02T17:37:52;19.60;;;11.30;;
65130;SDS011;51709;54.912;8.316;2024-03-02T17:43:13;18.38;;;9.77;;
65130;SDS011;51709;54.912;8.316;2024-03-02T17:48:34;16.17;;;9.50;;
65130;SDS011;51709;54.912;8.316;2024-03-02T17:53:54;15.57;;;10.23;;
65130;SDS011;51709;54.912;8.316;2024-03-02T17:59:15;13.98;;;9.13;;
65130;SDS011;51709;54.912;8.316;2024-03-02T18:04:36;15.43;;;8.82;;
65130;SDS011;51709;54.912;8.316;2024-03-02T18:09:56;16.92;;;9.73;;
65130;SDS011;51709;54.912;8.316;2024-03-02T18:15:20;16.90;;;10.15;;
65130;SDS011;51709;54.912;8.316;2024-03-02T18:20:41;18.92;;;10.13;;
65130;SDS011;51709;54.912;8.316;2024-03-02T18:26:01;22.13;;;12.60;;
65130;SDS011;51709;54.912;8.316;2024-03-02T18:31:22;22.08;;;13.00;;
65130;SDS011;51709;54.912;8.316;2024-03-02T18:36:43;27.75;;;14.45;;
65130;SDS011;51709;54.912;8.316;2024-03-02T18:42:04;25.20;;;14.88;;
65130;SDS011;51709;54.912;8.316;2024-03-02T18:47:24;32.65;;;16.70;;
65130;SDS011;51709;54.912;8.316;2024-03-02T18:52:46;35.33;;;17.50;;
65130;SDS011;51709;54.912;8.316;2024-03-02T18:58:07;37.40;;;18.33;;
65130;SDS011;51709;54.912;8.316;2024-03-02T19:03:28;38.90;;;19.23;;
65130;SDS011;51709;54.912;8.316;2024-03-02T19:08:49;37.70;;;19.52;;
65130;SDS011;51709;54.912;8.316;2024-03-02T19:14:10;42.75;;;21.60;;
65130;SDS011;51709;54.912;8.316;2024-03-02T19:19:31;47.00;;;20.65;;
65130;SDS011;51709;54.912;8.316;2024-03-02T19:24:51;40.63;;;20.98;;
65130;SDS011;51709;54.912;8.316;2024-03-02T19:30:12;41.67;;;21.55;;
65130;SDS011;51709;54.912;8.316;2024-03-02T19:35:33;43.90;;;22.92;;
65130;SDS011;51709;54.912;8.316;2024-03-02T19:40:53;49.38;;;23.30;;
65130;SDS011;51709;54.912;8.316;2024-03-02T19:46:14;39.80;;;23.27;;
65130;SDS011;51709;54.912;8.316;2024-03-02T19:51:35;46.90;;;22.77;;
65130;SDS011;51709;54.912;8.316;2024-03-02T19:56:55;44.63;;;21.58;;
65130;SDS011;51709;54.912;8.316;2024-03-02T20:02:16;45.47;;;22.25;;
65130;SDS011;51709;54.912;8.316;2024-03-02T20:07:39;45.20;;;23.75;;
65130;SDS011;51709;54.912;8.316;2024-03-02T20:13:02;65.63;;;30.37;;
65130;SDS011;51709;54.912;8.316;2024-03-02T20:18:26;68.40;;;35.55;;
65130;SDS011;51709;54.912;8.316;2024-03-02T20:23:46;57.17;;;27.95;;
65130;SDS011;51709;54.912;8.316;2024-03-02T20:29:07;51.95;;;26.98;;
65130;SDS011;51709;54.912;8.316;2024-03-02T20:34:27;43.60;;;21.30;;
65130;SDS011;51709;54.912;8.316;2024-03-02T20:39:48;42.85;;;22.00;;
65130;SDS011;51709;54.912;8.316;2024-03-02T20:45:09;46.13;;;22.08;;
65130;SDS011;51709;54.912;8.316;2024-03-02T20:50:29;50.70;;;22.63;;
65130;SDS011;51709;54.912;8.316;2024-03-02T20:55:50;50.65;;;23.17;;
65130;SDS011;51709;54.912;8.316;2024-03-02T21:01:10;43.88;;;23.55;;
65130;SDS011;51709;54.912;8.316;2024-03-02T21:06:31;39.67;;;20.90;;
65130;SDS011;51709;54.912;8.316;2024-03-02T21:11:52;45.05;;;23.85;;
65130;SDS011;51709;54.912;8.316;2024-03-02T21:17:13;46.00;;;21.52;;
65130;SDS011;51709;54.912;8.316;2024-03-02T21:22:36;42.70;;;21.90;;
65130;SDS011;51709;54.912;8.316;2024-03-02T21:27:59;43.22;;;21.85;;
65130;SDS011;51709;54.912;8.316;2024-03-02T21:33:20;46.25;;;22.10;;
65130;SDS011;51709;54.912;8.316;2024-03-02T21:38:41;44.78;;;24.45;;
65130;SDS011;51709;54.912;8.316;2024-03-02T21:44:02;49.92;;;24.00;;
65130;SDS011;51709;54.912;8.316;2024-03-02T21:49:23;51.25;;;23.02;;
65130;SDS011;51709;54.912;8.316;2024-03-02T21:54:43;43.60;;;22.63;;
65130;SDS011;51709;54.912;8.316;2024-03-02T22:00:06;48.53;;;22.33;;
65130;SDS011;51709;54.912;8.316;2024-03-02T22:05:32;50.78;;;23.90;;
65130;SDS011;51709;54.912;8.316;2024-03-02T22:10:55;51.28;;;25.48;;
65130;SDS011;51709;54.912;8.316;2024-03-02T22:16:15;44.17;;;21.20;;
65130;SDS011;51709;54.912;8.316;2024-03-02T22:21:36;52.25;;;22.88;;
65130;SDS011;51709;54.912;8.316;2024-03-02T22:26:57;49.40;;;22.67;;
65130;SDS011;51709;54.912;8.316;2024-03-02T22:32:17;42.15;;;21.58;;
65130;SDS011;51709;54.912;8.316;2024-03-02T22:37:38;52.63;;;22.88;;
65130;SDS011;51709;54.912;8.316;2024-03-02T22:42:58;45.70;;;21.88;;
65130;SDS011;51709;54.912;8.316;2024-03-02T22:48:19;48.30;;;21.95;;
65130;SDS011;51709;54.912;8.316;2024-03-02T22:53:40;48.03;;;23.23;;
65130;SDS011;51709;54.912;8.316;2024-03-02T22:59:01;51.60;;;24.52;;
65130;SDS011;51709;54.912;8.316;2024-03-02T23:04:22;43.30;;;21.75;;
65130;SDS011;51709;54.912;8.316;2024-03-02T23:09:42;46.33;;;23.85;;
65130;SDS011;51709;54.912;8.316;2024-03-02T23:15:03;47.45;;;24.77;;
65130;SDS011;51709;54.912;8.316;2024-03-02T23:20:26;46.40;;;22.50;;
65130;SDS011;51709;54.912;8.316;2024-03-02T23:25:46;47.67;;;21.40;;
65130;SDS011;51709;54.912;8.316;2024-03-02T23:31:07;48.67;;;23.50;;
65130;SDS011;51709;54.912;8.316;2024-03-02T23:36:31;39.45;;;22.08;;
65130;SDS011;51709;54.912;8.316;2024-03-02T23:41:52;45.45;;;23.45;;
65130;SDS011;51709;54.912;8.316;2024-03-02T23:47:14;42.40;;;21.00;;
65130;SDS011;51709;54.912;8.316;2024-03-02T23:52:34;50.60;;;21.98;;
65130;SDS011;51709;54.912;8.316;2024-03-02T23:57:55;45.92;;;21.55;;
